This is the latest recevied weather packets stored in our database for station/object KF6GPE. If no packets are shown the sender has not sent any weather packets the latest 10 day(s).
| Time | Temp. | Humidity | Pressure | Rain* | Wind** | Luminosity | Snow |
|---|---|---|---|---|---|---|---|
| 1778205003 | 16.11° C | 80% | 989.5 hPa | 0 mm | - | 1001 W/m² | - |
| 1778204403 | 16.11° C | 78% | 989.4 hPa | 0 mm | - | 1001 W/m² | - |
| 1778203803 | 16.67° C | 78% | 989.4 hPa | 0 mm | - | 1001 W/m² | - |
| 1778203202 | 16.67° C | 77% | 989.3 hPa | 0 mm | - | 1001 W/m² | - |
| 1778202603 | 17.22° C | 76% | 989.3 hPa | 0 mm | - | 1001 W/m² | - |
| 1778202003 | 17.22° C | 76% | 989.4 hPa | 0 mm | - | 1001 W/m² | - |
| 1778201404 | 17.78° C | 75% | 989.4 hPa | 0 mm | - | 1001 W/m² | - |
| 1778200803 | 18.33° C | 74% | 989.3 hPa | 0 mm | - | 1001 W/m² | - |
| 1778200204 | 18.89° C | 72% | 989.3 hPa | 0 mm | - | 1001 W/m² | - |
| 1778199603 | 18.89° C | 71% | 989.3 hPa | 0 mm | - | 1002 W/m² | - |
| 1778199003 | 19.44° C | 70% | 989.2 hPa | 0 mm | - | 1002 W/m² | - |
| 1778198405 | 20.56° C | 68% | 989.1 hPa | 0 mm | - | 1002 W/m² | - |
| 1778197803 | 21.67° C | 66% | 989.1 hPa | 0 mm | - | 1002 W/m² | - |
| 1778197203 | 22.78° C | 65% | 989 hPa | 0 mm | - | 1002 W/m² | - |
| 1778196604 | 23.89° C | 61% | 988.9 hPa | 0 mm | - | 1002 W/m² | - |
| 1778196003 | 24.44° C | 58% | 988.9 hPa | 0 mm | - | 1003 W/m² | - |
| 1778195403 | 25.56° C | 55% | 989.1 hPa | 0 mm | - | 1059 W/m² | - |
| 1778194803 | 25.56° C | 55% | 989.1 hPa | 0 mm | - | 1066 W/m² | - |
| 1778194203 | 25.56° C | 55% | 989.2 hPa | 0 mm | - | 1069 W/m² | - |
| 1778193602 | 25.56° C | 57% | 989.2 hPa | 0 mm | - | 1072 W/m² | - |
| 1778193003 | 25° C | 58% | 989.2 hPa | 0 mm | - | 1075 W/m² | - |
| 1778192403 | 25.56° C | 56% | 989.4 hPa | 0 mm | - | 1078 W/m² | - |
| 1778191804 | 25.56° C | 58% | 989.5 hPa | 0 mm | - | 1080 W/m² | - |
| 1778191204 | 25.56° C | 55% | 989.4 hPa | 0 mm | - | 1082 W/m² | - |
| 1778190603 | 26.11° C | 54% | 989.4 hPa | 0 mm | - | 1084 W/m² | - |
* Rain latest hour (hover to see other rain measurements)
** Current wind speed in m/s (hover to see current wind gust speed)